sensor_id;sensor_type;location;lat;lon;timestamp;temperature;humidity
25716;DHT22;13573;50.936;4.328;2023-05-16T00:01:00;10.60;99.90
25716;DHT22;13573;50.936;4.328;2023-05-16T00:03:27;10.50;99.90
25716;DHT22;13573;50.936;4.328;2023-05-16T00:05:55;10.50;99.90
25716;DHT22;13573;50.936;4.328;2023-05-16T00:08:22;11.30;99.90
25716;DHT22;13573;50.936;4.328;2023-05-16T00:10:49;10.40;99.90
25716;DHT22;13573;50.936;4.328;2023-05-16T00:13:16;10.30;99.90
25716;DHT22;13573;50.936;4.328;2023-05-16T00:15:44;10.30;99.90
25716;DHT22;13573;50.936;4.328;2023-05-16T00:18:12;11.20;99.90
25716;DHT22;13573;50.936;4.328;2023-05-16T00:20:41;10.00;99.90
25716;DHT22;13573;50.936;4.328;2023-05-16T00:23:07;10.00;99.90
25716;DHT22;13573;50.936;4.328;2023-05-16T00:25:35;9.90;99.90
25716;DHT22;13573;50.936;4.328;2023-05-16T00:28:02;9.90;99.90
25716;DHT22;13573;50.936;4.328;2023-05-16T00:30:28;9.90;99.90
25716;DHT22;13573;50.936;4.328;2023-05-16T00:32:57;9.80;99.90
25716;DHT22;13573;50.936;4.328;2023-05-16T00:35:23;9.70;99.90
25716;DHT22;13573;50.936;4.328;2023-05-16T00:37:50;9.70;99.90
25716;DHT22;13573;50.936;4.328;2023-05-16T00:40:17;9.60;99.90
25716;DHT22;13573;50.936;4.328;2023-05-16T00:42:43;9.60;99.90
25716;DHT22;13573;50.936;4.328;2023-05-16T00:45:10;9.70;99.90
25716;DHT22;13573;50.936;4.328;2023-05-16T00:47:37;9.60;99.90
25716;DHT22;13573;50.936;4.328;2023-05-16T00:50:04;9.60;99.90
25716;DHT22;13573;50.936;4.328;2023-05-16T00:52:33;9.60;99.90
25716;DHT22;13573;50.936;4.328;2023-05-16T00:55:01;9.50;99.90
25716;DHT22;13573;50.936;4.328;2023-05-16T00:57:29;9.50;99.90
25716;DHT22;13573;50.936;4.328;2023-05-16T00:59:56;9.40;99.90
25716;DHT22;13573;50.936;4.328;2023-05-16T01:02:23;9.20;99.90
25716;DHT22;13573;50.936;4.328;2023-05-16T01:04:51;9.40;99.90
25716;DHT22;13573;50.936;4.328;2023-05-16T01:07:18;9.40;99.90
25716;DHT22;13573;50.936;4.328;2023-05-16T01:09:45;9.40;99.90
25716;DHT22;13573;50.936;4.328;2023-05-16T01:12:20;9.60;99.90
25716;DHT22;13573;50.936;4.328;2023-05-16T01:15:04;9.20;99.90
25716;DHT22;13573;50.936;4.328;2023-05-16T01:17:42;8.90;99.90
25716;DHT22;13573;50.936;4.328;2023-05-16T01:25:55;9.40;99.90
25716;DHT22;13573;50.936;4.328;2023-05-16T01:28:23;8.70;99.90
25716;DHT22;13573;50.936;4.328;2023-05-16T01:30:52;8.70;99.90
25716;DHT22;13573;50.936;4.328;2023-05-16T01:33:20;8.90;99.90
25716;DHT22;13573;50.936;4.328;2023-05-16T01:36:12;9.30;99.90
25716;DHT22;13573;50.936;4.328;2023-05-16T01:38:55;8.90;99.90
25716;DHT22;13573;50.936;4.328;2023-05-16T01:41:27;9.00;99.90
25716;DHT22;13573;50.936;4.328;2023-05-16T01:43:59;10.30;99.90
25716;DHT22;13573;50.936;4.328;2023-05-16T01:46:36;8.90;99.90
25716;DHT22;13573;50.936;4.328;2023-05-16T01:49:09;9.10;99.90
25716;DHT22;13573;50.936;4.328;2023-05-16T01:51:34;9.00;99.90
25716;DHT22;13573;50.936;4.328;2023-05-16T01:54:04;9.00;99.90
25716;DHT22;13573;50.936;4.328;2023-05-16T01:56:32;8.50;99.90
25716;DHT22;13573;50.936;4.328;2023-05-16T01:59:01;8.80;99.90
25716;DHT22;13573;50.936;4.328;2023-05-16T02:01:29;8.90;99.90
25716;DHT22;13573;50.936;4.328;2023-05-16T02:03:57;8.90;99.90
25716;DHT22;13573;50.936;4.328;2023-05-16T02:06:24;8.30;99.90
25716;DHT22;13573;50.936;4.328;2023-05-16T02:08:51;8.20;99.90
25716;DHT22;13573;50.936;4.328;2023-05-16T02:11:17;8.60;99.90
25716;DHT22;13573;50.936;4.328;2023-05-16T02:13:44;7.80;99.90
25716;DHT22;13573;50.936;4.328;2023-05-16T02:16:11;7.90;99.90
25716;DHT22;13573;50.936;4.328;2023-05-16T02:18:38;8.10;99.90
25716;DHT22;13573;50.936;4.328;2023-05-16T02:21:04;7.90;99.90
25716;DHT22;13573;50.936;4.328;2023-05-16T02:23:31;7.50;99.90
25716;DHT22;13573;50.936;4.328;2023-05-16T02:25:57;7.80;99.90
25716;DHT22;13573;50.936;4.328;2023-05-16T02:28:24;8.00;99.90
25716;DHT22;13573;50.936;4.328;2023-05-16T02:30:56;8.00;99.90
25716;DHT22;13573;50.936;4.328;2023-05-16T02:33:25;7.70;99.90
25716;DHT22;13573;50.936;4.328;2023-05-16T02:35:52;7.90;99.90
25716;DHT22;13573;50.936;4.328;2023-05-16T02:38:19;7.90;99.90
25716;DHT22;13573;50.936;4.328;2023-05-16T02:40:47;7.90;99.90
25716;DHT22;13573;50.936;4.328;2023-05-16T02:43:13;7.50;99.90
25716;DHT22;13573;50.936;4.328;2023-05-16T02:45:40;7.90;99.90
25716;DHT22;13573;50.936;4.328;2023-05-16T02:48:07;7.90;99.90
25716;DHT22;13573;50.936;4.328;2023-05-16T02:50:33;7.60;99.90
25716;DHT22;13573;50.936;4.328;2023-05-16T02:53:00;7.50;99.90
25716;DHT22;13573;50.936;4.328;2023-05-16T02:55:28;7.80;99.90
25716;DHT22;13573;50.936;4.328;2023-05-16T02:57:55;8.00;99.90
25716;DHT22;13573;50.936;4.328;2023-05-16T03:00:21;7.70;99.90
25716;DHT22;13573;50.936;4.328;2023-05-16T03:02:48;7.60;99.90
25716;DHT22;13573;50.936;4.328;2023-05-16T03:05:15;7.50;99.90
25716;DHT22;13573;50.936;4.328;2023-05-16T03:07:42;7.70;99.90
25716;DHT22;13573;50.936;4.328;2023-05-16T03:10:08;7.50;99.90
25716;DHT22;13573;50.936;4.328;2023-05-16T03:12:35;7.70;99.90
25716;DHT22;13573;50.936;4.328;2023-05-16T03:15:02;7.60;99.90
25716;DHT22;13573;50.936;4.328;2023-05-16T03:17:29;7.70;99.90
25716;DHT22;13573;50.936;4.328;2023-05-16T03:19:55;7.70;99.90
25716;DHT22;13573;50.936;4.328;2023-05-16T03:22:22;7.60;99.90
25716;DHT22;13573;50.936;4.328;2023-05-16T03:24:48;7.50;99.90
25716;DHT22;13573;50.936;4.328;2023-05-16T03:27:15;7.50;99.90
25716;DHT22;13573;50.936;4.328;2023-05-16T03:29:42;7.50;99.90
25716;DHT22;13573;50.936;4.328;2023-05-16T03:32:10;7.50;99.90
25716;DHT22;13573;50.936;4.328;2023-05-16T03:34:37;6.80;99.90
25716;DHT22;13573;50.936;4.328;2023-05-16T03:37:03;6.90;99.90
25716;DHT22;13573;50.936;4.328;2023-05-16T03:39:31;7.10;99.90
25716;DHT22;13573;50.936;4.328;2023-05-16T03:41:58;7.10;99.90
25716;DHT22;13573;50.936;4.328;2023-05-16T03:44:25;7.50;99.90
25716;DHT22;13573;50.936;4.328;2023-05-16T03:46:52;7.40;99.90
25716;DHT22;13573;50.936;4.328;2023-05-16T03:49:24;7.20;99.90
25716;DHT22;13573;50.936;4.328;2023-05-16T03:51:51;7.20;99.90
25716;DHT22;13573;50.936;4.328;2023-05-16T03:54:18;7.30;99.90
25716;DHT22;13573;50.936;4.328;2023-05-16T03:56:45;7.10;99.90
25716;DHT22;13573;50.936;4.328;2023-05-16T03:59:11;7.20;99.90
25716;DHT22;13573;50.936;4.328;2023-05-16T04:01:38;7.20;99.90
25716;DHT22;13573;50.936;4.328;2023-05-16T04:04:04;7.20;99.90
25716;DHT22;13573;50.936;4.328;2023-05-16T04:06:32;7.40;99.90
25716;DHT22;13573;50.936;4.328;2023-05-16T04:08:59;6.10;99.90
25716;DHT22;13573;50.936;4.328;2023-05-16T04:11:49;8.80;99.90
25716;DHT22;13573;50.936;4.328;2023-05-16T04:14:15;7.30;99.90
25716;DHT22;13573;50.936;4.328;2023-05-16T04:16:42;7.30;99.90
25716;DHT22;13573;50.936;4.328;2023-05-16T04:19:08;7.20;99.90
25716;DHT22;13573;50.936;4.328;2023-05-16T04:21:35;7.30;99.90
25716;DHT22;13573;50.936;4.328;2023-05-16T04:24:02;7.60;99.90
25716;DHT22;13573;50.936;4.328;2023-05-16T04:26:29;7.80;99.90
25716;DHT22;13573;50.936;4.328;2023-05-16T04:28:56;7.90;99.90
25716;DHT22;13573;50.936;4.328;2023-05-16T04:31:24;7.90;99.90
25716;DHT22;13573;50.936;4.328;2023-05-16T04:33:51;8.30;99.90
25716;DHT22;13573;50.936;4.328;2023-05-16T04:36:19;7.60;99.90
25716;DHT22;13573;50.936;4.328;2023-05-16T04:38:46;7.70;99.90
25716;DHT22;13573;50.936;4.328;2023-05-16T04:41:13;7.90;99.90
25716;DHT22;13573;50.936;4.328;2023-05-16T04:43:39;7.90;99.90
25716;DHT22;13573;50.936;4.328;2023-05-16T04:46:07;7.90;99.90
25716;DHT22;13573;50.936;4.328;2023-05-16T04:48:33;7.10;99.90
25716;DHT22;13573;50.936;4.328;2023-05-16T04:51:00;8.50;99.90
25716;DHT22;13573;50.936;4.328;2023-05-16T04:53:27;8.40;99.90
25716;DHT22;13573;50.936;4.328;2023-05-16T04:55:53;8.50;99.90
25716;DHT22;13573;50.936;4.328;2023-05-16T04:58:20;8.70;99.90
25716;DHT22;13573;50.936;4.328;2023-05-16T05:00:50;8.80;99.90
25716;DHT22;13573;50.936;4.328;2023-05-16T05:03:17;8.90;99.90
25716;DHT22;13573;50.936;4.328;2023-05-16T05:05:44;9.10;99.90
25716;DHT22;13573;50.936;4.328;2023-05-16T05:08:11;9.30;99.90
25716;DHT22;13573;50.936;4.328;2023-05-16T05:10:37;9.60;99.90
25716;DHT22;13573;50.936;4.328;2023-05-16T05:13:04;10.00;99.90
25716;DHT22;13573;50.936;4.328;2023-05-16T05:15:31;10.80;99.90
25716;DHT22;13573;50.936;4.328;2023-05-16T05:17:58;10.70;99.90
25716;DHT22;13573;50.936;4.328;2023-05-16T05:20:25;11.20;99.90
25716;DHT22;13573;50.936;4.328;2023-05-16T05:22:52;11.40;99.90
25716;DHT22;13573;50.936;4.328;2023-05-16T05:25:18;12.00;99.90
25716;DHT22;13573;50.936;4.328;2023-05-16T05:27:45;12.40;99.90
25716;DHT22;13573;50.936;4.328;2023-05-16T05:30:11;12.40;99.90
25716;DHT22;13573;50.936;4.328;2023-05-16T05:32:38;12.60;99.90
25716;DHT22;13573;50.936;4.328;2023-05-16T05:35:05;12.90;99.90
25716;DHT22;13573;50.936;4.328;2023-05-16T05:37:32;13.40;99.90
25716;DHT22;13573;50.936;4.328;2023-05-16T05:39:59;13.60;99.90
25716;DHT22;13573;50.936;4.328;2023-05-16T05:42:25;14.00;99.90
25716;DHT22;13573;50.936;4.328;2023-05-16T05:44:52;13.40;99.90
25716;DHT22;13573;50.936;4.328;2023-05-16T05:47:18;13.40;99.90
25716;DHT22;13573;50.936;4.328;2023-05-16T05:49:45;13.20;99.90
25716;DHT22;13573;50.936;4.328;2023-05-16T05:52:12;13.10;99.90
25716;DHT22;13573;50.936;4.328;2023-05-16T05:54:39;13.40;99.90
25716;DHT22;13573;50.936;4.328;2023-05-16T05:57:06;13.50;99.90
25716;DHT22;13573;50.936;4.328;2023-05-16T05:59:32;13.40;99.90
25716;DHT22;13573;50.936;4.328;2023-05-16T06:01:59;12.90;99.90
25716;DHT22;13573;50.936;4.328;2023-05-16T06:04:26;12.90;99.90
25716;DHT22;13573;50.936;4.328;2023-05-16T06:06:53;12.80;99.90
25716;DHT22;13573;50.936;4.328;2023-05-16T06:09:20;13.10;99.90
25716;DHT22;13573;50.936;4.328;2023-05-16T06:11:48;13.10;99.90
25716;DHT22;13573;50.936;4.328;2023-05-16T06:14:14;12.90;99.90
25716;DHT22;13573;50.936;4.328;2023-05-16T06:16:41;12.70;99.90
25716;DHT22;13573;50.936;4.328;2023-05-16T06:19:09;13.30;99.90
25716;DHT22;13573;50.936;4.328;2023-05-16T06:21:37;12.90;99.90
25716;DHT22;13573;50.936;4.328;2023-05-16T06:24:03;12.90;99.90
25716;DHT22;13573;50.936;4.328;2023-05-16T06:26:30;12.70;99.90
25716;DHT22;13573;50.936;4.328;2023-05-16T06:28:57;13.00;99.90
25716;DHT22;13573;50.936;4.328;2023-05-16T06:31:23;13.00;99.90
25716;DHT22;13573;50.936;4.328;2023-05-16T06:33:51;13.20;99.90
25716;DHT22;13573;50.936;4.328;2023-05-16T06:36:18;14.00;99.90
25716;DHT22;13573;50.936;4.328;2023-05-16T06:38:44;14.40;99.90
25716;DHT22;13573;50.936;4.328;2023-05-16T06:41:11;14.60;99.90
25716;DHT22;13573;50.936;4.328;2023-05-16T06:43:39;14.40;99.90
25716;DHT22;13573;50.936;4.328;2023-05-16T06:46:06;14.30;99.90
25716;DHT22;13573;50.936;4.328;2023-05-16T06:48:32;14.20;99.90
25716;DHT22;13573;50.936;4.328;2023-05-16T06:50:59;14.20;99.90
25716;DHT22;13573;50.936;4.328;2023-05-16T06:53:25;14.30;99.90
25716;DHT22;13573;50.936;4.328;2023-05-16T06:55:53;14.00;99.90
25716;DHT22;13573;50.936;4.328;2023-05-16T06:58:20;13.00;99.90
25716;DHT22;13573;50.936;4.328;2023-05-16T07:00:48;14.30;99.90
25716;DHT22;13573;50.936;4.328;2023-05-16T07:03:15;14.10;99.90
25716;DHT22;13573;50.936;4.328;2023-05-16T07:05:42;14.10;99.90
25716;DHT22;13573;50.936;4.328;2023-05-16T07:08:09;14.30;99.90
25716;DHT22;13573;50.936;4.328;2023-05-16T07:10:36;14.20;99.90
25716;DHT22;13573;50.936;4.328;2023-05-16T07:13:02;14.50;99.90
25716;DHT22;13573;50.936;4.328;2023-05-16T07:15:30;14.40;99.90
25716;DHT22;13573;50.936;4.328;2023-05-16T07:17:57;13.40;99.90
25716;DHT22;13573;50.936;4.328;2023-05-16T07:20:24;14.50;99.90
25716;DHT22;13573;50.936;4.328;2023-05-16T07:22:51;14.60;99.90
25716;DHT22;13573;50.936;4.328;2023-05-16T07:25:18;15.00;99.90
25716;DHT22;13573;50.936;4.328;2023-05-16T07:27:45;14.80;99.90
25716;DHT22;13573;50.936;4.328;2023-05-16T07:30:12;15.50;99.90
25716;DHT22;13573;50.936;4.328;2023-05-16T07:32:42;15.40;99.90
25716;DHT22;13573;50.936;4.328;2023-05-16T07:35:09;15.70;99.90
25716;DHT22;13573;50.936;4.328;2023-05-16T07:37:35;16.40;99.90
25716;DHT22;13573;50.936;4.328;2023-05-16T07:40:02;17.00;99.90
25716;DHT22;13573;50.936;4.328;2023-05-16T07:42:30;17.00;99.90
25716;DHT22;13573;50.936;4.328;2023-05-16T07:44:57;17.10;99.90
25716;DHT22;13573;50.936;4.328;2023-05-16T07:47:23;17.00;99.90
25716;DHT22;13573;50.936;4.328;2023-05-16T07:49:50;17.30;99.90
25716;DHT22;13573;50.936;4.328;2023-05-16T07:52:17;18.00;99.90
25716;DHT22;13573;50.936;4.328;2023-05-16T07:54:45;18.60;99.90
25716;DHT22;13573;50.936;4.328;2023-05-16T07:57:15;19.60;99.90
25716;DHT22;13573;50.936;4.328;2023-05-16T07:59:42;21.00;99.90
25716;DHT22;13573;50.936;4.328;2023-05-16T08:02:10;21.20;99.90
25716;DHT22;13573;50.936;4.328;2023-05-16T08:04:37;22.30;99.90
25716;DHT22;13573;50.936;4.328;2023-05-16T08:07:04;22.80;99.90
25716;DHT22;13573;50.936;4.328;2023-05-16T08:09:38;21.60;99.90
25716;DHT22;13573;50.936;4.328;2023-05-16T08:12:05;20.80;99.90
25716;DHT22;13573;50.936;4.328;2023-05-16T08:14:32;20.70;99.90
25716;DHT22;13573;50.936;4.328;2023-05-16T08:16:59;21.30;99.90
25716;DHT22;13573;50.936;4.328;2023-05-16T08:19:26;21.40;99.90
25716;DHT22;13573;50.936;4.328;2023-05-16T08:21:54;20.70;99.90
25716;DHT22;13573;50.936;4.328;2023-05-16T08:24:21;20.10;99.90
25716;DHT22;13573;50.936;4.328;2023-05-16T08:26:47;19.60;99.90
25716;DHT22;13573;50.936;4.328;2023-05-16T08:29:14;19.10;99.90
25716;DHT22;13573;50.936;4.328;2023-05-16T08:31:41;18.30;99.90
25716;DHT22;13573;50.936;4.328;2023-05-16T08:34:07;16.90;99.90
25716;DHT22;13573;50.936;4.328;2023-05-16T08:36:36;18.40;99.90
25716;DHT22;13573;50.936;4.328;2023-05-16T08:39:03;17.20;99.90
25716;DHT22;13573;50.936;4.328;2023-05-16T08:41:30;17.20;99.90
25716;DHT22;13573;50.936;4.328;2023-05-16T08:43:56;18.80;99.90
25716;DHT22;13573;50.936;4.328;2023-05-16T08:46:24;18.50;99.90
25716;DHT22;13573;50.936;4.328;2023-05-16T08:48:52;18.60;99.90
25716;DHT22;13573;50.936;4.328;2023-05-16T08:51:20;18.70;99.90
25716;DHT22;13573;50.936;4.328;2023-05-16T08:53:51;19.00;99.90
25716;DHT22;13573;50.936;4.328;2023-05-16T08:56:18;19.60;99.90
25716;DHT22;13573;50.936;4.328;2023-05-16T08:58:48;20.80;99.90
25716;DHT22;13573;50.936;4.328;2023-05-16T09:01:15;22.10;99.90
25716;DHT22;13573;50.936;4.328;2023-05-16T09:03:43;22.30;99.90
25716;DHT22;13573;50.936;4.328;2023-05-16T09:06:09;21.70;99.90
25716;DHT22;13573;50.936;4.328;2023-05-16T09:08:36;21.70;99.90
25716;DHT22;13573;50.936;4.328;2023-05-16T09:11:03;22.60;99.90
25716;DHT22;13573;50.936;4.328;2023-05-16T09:13:30;22.80;99.90
25716;DHT22;13573;50.936;4.328;2023-05-16T09:16:08;21.40;99.90
25716;DHT22;13573;50.936;4.328;2023-05-16T09:18:36;21.60;99.90
25716;DHT22;13573;50.936;4.328;2023-05-16T09:21:04;21.80;99.90
25716;DHT22;13573;50.936;4.328;2023-05-16T09:23:33;22.50;99.90
25716;DHT22;13573;50.936;4.328;2023-05-16T09:25:59;23.00;99.90
25716;DHT22;13573;50.936;4.328;2023-05-16T09:28:29;22.20;99.90
25716;DHT22;13573;50.936;4.328;2023-05-16T09:30:56;22.30;99.90
25716;DHT22;13573;50.936;4.328;2023-05-16T09:33:27;21.70;99.90
25716;DHT22;13573;50.936;4.328;2023-05-16T09:35:58;22.00;99.90
25716;DHT22;13573;50.936;4.328;2023-05-16T09:41:08;22.50;99.90
25716;DHT22;13573;50.936;4.328;2023-05-16T09:43:38;22.80;99.90
25716;DHT22;13573;50.936;4.328;2023-05-16T09:46:05;23.50;99.90
25716;DHT22;13573;50.936;4.328;2023-05-16T09:48:32;23.80;99.90
25716;DHT22;13573;50.936;4.328;2023-05-16T09:50:59;24.20;99.70
25716;DHT22;13573;50.936;4.328;2023-05-16T09:53:31;25.60;99.50
25716;DHT22;13573;50.936;4.328;2023-05-16T09:56:05;26.30;98.00
25716;DHT22;13573;50.936;4.328;2023-05-16T09:58:34;26.00;99.70
25716;DHT22;13573;50.936;4.328;2023-05-16T10:01:01;26.40;96.40
25716;DHT22;13573;50.936;4.328;2023-05-16T10:08:24;25.60;98.70
25716;DHT22;13573;50.936;4.328;2023-05-16T10:10:52;26.30;95.30
25716;DHT22;13573;50.936;4.328;2023-05-16T10:13:30;26.30;97.90
25716;DHT22;13573;50.936;4.328;2023-05-16T10:16:05;26.50;96.90
25716;DHT22;13573;50.936;4.328;2023-05-16T10:18:34;26.40;93.80
25716;DHT22;13573;50.936;4.328;2023-05-16T10:21:04;25.20;97.50
25716;DHT22;13573;50.936;4.328;2023-05-16T10:26:11;26.10;98.40
25716;DHT22;13573;50.936;4.328;2023-05-16T10:28:39;27.00;93.90
25716;DHT22;13573;50.936;4.328;2023-05-16T10:31:07;26.50;92.70
25716;DHT22;13573;50.936;4.328;2023-05-16T10:33:35;26.60;92.60
25716;DHT22;13573;50.936;4.328;2023-05-16T10:36:03;26.60;92.50
25716;DHT22;13573;50.936;4.328;2023-05-16T10:38:33;25.30;96.20
25716;DHT22;13573;50.936;4.328;2023-05-16T10:41:04;24.50;96.60
25716;DHT22;13573;50.936;4.328;2023-05-16T10:43:32;23.30;96.70
25716;DHT22;13573;50.936;4.328;2023-05-16T10:46:02;23.60;92.80
25716;DHT22;13573;50.936;4.328;2023-05-16T10:48:33;23.70;98.30
25716;DHT22;13573;50.936;4.328;2023-05-16T10:51:01;23.90;98.60
25716;DHT22;13573;50.936;4.328;2023-05-16T10:56:15;25.70;93.60
25716;DHT22;13573;50.936;4.328;2023-05-16T10:58:45;26.10;96.40
25716;DHT22;13573;50.936;4.328;2023-05-16T11:01:31;24.20;96.40
25716;DHT22;13573;50.936;4.328;2023-05-16T11:04:07;24.80;92.70
25716;DHT22;13573;50.936;4.328;2023-05-16T11:06:45;24.10;93.40
25716;DHT22;13573;50.936;4.328;2023-05-16T11:09:27;23.50;97.20
25716;DHT22;13573;50.936;4.328;2023-05-16T11:11:57;24.90;93.10
25716;DHT22;13573;50.936;4.328;2023-05-16T11:14:26;25.60;92.80
25716;DHT22;13573;50.936;4.328;2023-05-16T11:17:01;24.90;93.10
25716;DHT22;13573;50.936;4.328;2023-05-16T11:19:32;24.90;93.70
25716;DHT22;13573;50.936;4.328;2023-05-16T11:22:11;25.50;92.70
25716;DHT22;13573;50.936;4.328;2023-05-16T11:27:20;25.80;92.20
25716;DHT22;13573;50.936;4.328;2023-05-16T11:29:47;25.30;92.60
25716;DHT22;13573;50.936;4.328;2023-05-16T11:32:18;24.60;93.00
25716;DHT22;13573;50.936;4.328;2023-05-16T11:34:46;24.10;94.00
25716;DHT22;13573;50.936;4.328;2023-05-16T11:37:13;24.30;96.90
25716;DHT22;13573;50.936;4.328;2023-05-16T11:39:41;24.30;92.90
25716;DHT22;13573;50.936;4.328;2023-05-16T11:42:08;23.40;97.70
25716;DHT22;13573;50.936;4.328;2023-05-16T11:44:36;23.40;93.50
25716;DHT22;13573;50.936;4.328;2023-05-16T11:47:02;23.30;94.00
25716;DHT22;13573;50.936;4.328;2023-05-16T11:49:30;23.80;93.90
25716;DHT22;13573;50.936;4.328;2023-05-16T11:51:57;24.30;93.30
25716;DHT22;13573;50.936;4.328;2023-05-16T11:54:24;25.80;92.20
25716;DHT22;13573;50.936;4.328;2023-05-16T11:56:51;25.80;95.10
25716;DHT22;13573;50.936;4.328;2023-05-16T11:59:18;26.50;91.60
25716;DHT22;13573;50.936;4.328;2023-05-16T12:01:45;26.70;90.90
25716;DHT22;13573;50.936;4.328;2023-05-16T12:04:16;24.50;94.20
25716;DHT22;13573;50.936;4.328;2023-05-16T12:06:43;25.90;90.80
25716;DHT22;13573;50.936;4.328;2023-05-16T12:09:12;24.90;94.60
25716;DHT22;13573;50.936;4.328;2023-05-16T12:11:42;25.20;90.70
25716;DHT22;13573;50.936;4.328;2023-05-16T12:14:11;23.20;95.90
25716;DHT22;13573;50.936;4.328;2023-05-16T12:16:38;23.60;91.30
25716;DHT22;13573;50.936;4.328;2023-05-16T12:19:07;23.80;94.90
25716;DHT22;13573;50.936;4.328;2023-05-16T12:21:35;24.10;91.00
25716;DHT22;13573;50.936;4.328;2023-05-16T12:24:01;24.70;90.50
25716;DHT22;13573;50.936;4.328;2023-05-16T12:26:30;26.20;86.50
25716;DHT22;13573;50.936;4.328;2023-05-16T12:28:59;25.40;92.90
25716;DHT22;13573;50.936;4.328;2023-05-16T12:31:29;26.30;87.00
25716;DHT22;13573;50.936;4.328;2023-05-16T12:33:56;25.90;87.70
25716;DHT22;13573;50.936;4.328;2023-05-16T12:36:24;25.80;87.20
25716;DHT22;13573;50.936;4.328;2023-05-16T12:38:52;26.50;86.00
25716;DHT22;13573;50.936;4.328;2023-05-16T12:41:20;26.40;86.20
25716;DHT22;13573;50.936;4.328;2023-05-16T12:43:48;26.10;85.20
25716;DHT22;13573;50.936;4.328;2023-05-16T12:46:15;27.40;91.20
25716;DHT22;13573;50.936;4.328;2023-05-16T12:48:42;27.50;85.80
25716;DHT22;13573;50.936;4.328;2023-05-16T12:51:13;27.50;85.10
25716;DHT22;13573;50.936;4.328;2023-05-16T12:53:45;27.40;82.10
25716;DHT22;13573;50.936;4.328;2023-05-16T12:56:12;27.60;82.10
25716;DHT22;13573;50.936;4.328;2023-05-16T12:58:41;27.10;83.90
25716;DHT22;13573;50.936;4.328;2023-05-16T13:01:08;26.10;91.80
25716;DHT22;13573;50.936;4.328;2023-05-16T13:03:35;26.20;85.60
25716;DHT22;13573;50.936;4.328;2023-05-16T13:06:01;26.60;84.30
25716;DHT22;13573;50.936;4.328;2023-05-16T13:08:29;26.60;85.60
25716;DHT22;13573;50.936;4.328;2023-05-16T13:10:55;26.50;91.40
25716;DHT22;13573;50.936;4.328;2023-05-16T13:13:22;26.70;84.90
25716;DHT22;13573;50.936;4.328;2023-05-16T13:15:49;26.40;85.30
25716;DHT22;13573;50.936;4.328;2023-05-16T13:18:16;26.10;92.40
25716;DHT22;13573;50.936;4.328;2023-05-16T13:20:43;26.10;85.40
25716;DHT22;13573;50.936;4.328;2023-05-16T13:23:09;26.60;85.70
25716;DHT22;13573;50.936;4.328;2023-05-16T13:25:36;26.20;85.90
25716;DHT22;13573;50.936;4.328;2023-05-16T13:28:03;24.20;93.60
25716;DHT22;13573;50.936;4.328;2023-05-16T13:30:29;24.60;89.10
25716;DHT22;13573;50.936;4.328;2023-05-16T13:32:56;24.60;93.70
25716;DHT22;13573;50.936;4.328;2023-05-16T13:35:23;25.10;88.70
25716;DHT22;13573;50.936;4.328;2023-05-16T13:37:50;24.40;93.50
25716;DHT22;13573;50.936;4.328;2023-05-16T13:40:17;24.30;89.20
25716;DHT22;13573;50.936;4.328;2023-05-16T13:42:44;24.00;90.20
25716;DHT22;13573;50.936;4.328;2023-05-16T13:45:11;23.60;90.00
25716;DHT22;13573;50.936;4.328;2023-05-16T13:47:37;23.40;94.00
25716;DHT22;13573;50.936;4.328;2023-05-16T13:50:05;25.10;89.90
25716;DHT22;13573;50.936;4.328;2023-05-16T13:52:34;25.50;86.90
25716;DHT22;13573;50.936;4.328;2023-05-16T13:55:02;25.80;86.40
25716;DHT22;13573;50.936;4.328;2023-05-16T13:57:28;24.80;87.80
25716;DHT22;13573;50.936;4.328;2023-05-16T13:59:56;23.80;93.20
25716;DHT22;13573;50.936;4.328;2023-05-16T14:02:22;24.00;88.50
25716;DHT22;13573;50.936;4.328;2023-05-16T14:04:51;24.30;88.30
25716;DHT22;13573;50.936;4.328;2023-05-16T14:07:18;24.60;84.90
25716;DHT22;13573;50.936;4.328;2023-05-16T14:09:45;25.10;84.90
25716;DHT22;13573;50.936;4.328;2023-05-16T14:12:11;24.90;84.70
25716;DHT22;13573;50.936;4.328;2023-05-16T14:14:38;24.70;91.60
25716;DHT22;13573;50.936;4.328;2023-05-16T14:17:04;24.70;85.20
25716;DHT22;13573;50.936;4.328;2023-05-16T14:19:32;25.10;82.50
25716;DHT22;13573;50.936;4.328;2023-05-16T14:21:59;23.60;92.10
25716;DHT22;13573;50.936;4.328;2023-05-16T14:24:25;23.90;85.90
25716;DHT22;13573;50.936;4.328;2023-05-16T14:26:52;23.10;84.80
25716;DHT22;13573;50.936;4.328;2023-05-16T14:29:20;23.00;85.60
25716;DHT22;13573;50.936;4.328;2023-05-16T14:31:47;21.90;93.40
25716;DHT22;13573;50.936;4.328;2023-05-16T14:34:14;21.90;94.00
25716;DHT22;13573;50.936;4.328;2023-05-16T14:36:40;22.30;88.30
25716;DHT22;13573;50.936;4.328;2023-05-16T14:39:07;20.60;94.40
25716;DHT22;13573;50.936;4.328;2023-05-16T14:41:34;23.10;94.40
25716;DHT22;13573;50.936;4.328;2023-05-16T14:44:02;21.70;89.00
25716;DHT22;13573;50.936;4.328;2023-05-16T14:46:28;21.40;90.50
25716;DHT22;13573;50.936;4.328;2023-05-16T14:48:55;21.40;90.20
25716;DHT22;13573;50.936;4.328;2023-05-16T14:51:22;20.90;95.20
25716;DHT22;13573;50.936;4.328;2023-05-16T14:53:48;19.60;95.30
25716;DHT22;13573;50.936;4.328;2023-05-16T14:58:41;22.30;96.50
25716;DHT22;13573;50.936;4.328;2023-05-16T15:01:08;20.90;91.40
25716;DHT22;13573;50.936;4.328;2023-05-16T15:03:36;20.70;91.90
25716;DHT22;13573;50.936;4.328;2023-05-16T15:06:03;20.10;94.90
25716;DHT22;13573;50.936;4.328;2023-05-16T15:08:31;20.50;92.40
25716;DHT22;13573;50.936;4.328;2023-05-16T15:10:58;18.50;96.50
25716;DHT22;13573;50.936;4.328;2023-05-16T15:13:25;19.50;97.30
25716;DHT22;13573;50.936;4.328;2023-05-16T15:15:52;19.50;97.20
25716;DHT22;13573;50.936;4.328;2023-05-16T15:18:20;19.80;92.50
25716;DHT22;13573;50.936;4.328;2023-05-16T15:20:47;19.40;97.90
25716;DHT22;13573;50.936;4.328;2023-05-16T15:25:40;20.00;92.90
25716;DHT22;13573;50.936;4.328;2023-05-16T15:28:07;18.80;97.60
25716;DHT22;13573;50.936;4.328;2023-05-16T15:30:33;20.10;92.90
25716;DHT22;13573;50.936;4.328;2023-05-16T15:33:00;20.60;93.30
25716;DHT22;13573;50.936;4.328;2023-05-16T15:35:27;20.30;93.10
25716;DHT22;13573;50.936;4.328;2023-05-16T15:37:53;20.40;93.90
25716;DHT22;13573;50.936;4.328;2023-05-16T15:40:22;20.30;93.60
25716;DHT22;13573;50.936;4.328;2023-05-16T15:42:49;20.80;93.90
25716;DHT22;13573;50.936;4.328;2023-05-16T15:45:16;20.40;92.40
25716;DHT22;13573;50.936;4.328;2023-05-16T15:47:42;20.50;93.50
25716;DHT22;13573;50.936;4.328;2023-05-16T15:50:09;20.60;93.70
25716;DHT22;13573;50.936;4.328;2023-05-16T15:52:37;20.40;94.00
25716;DHT22;13573;50.936;4.328;2023-05-16T15:55:05;20.40;93.90
25716;DHT22;13573;50.936;4.328;2023-05-16T15:57:31;20.40;93.50
25716;DHT22;13573;50.936;4.328;2023-05-16T15:59:58;20.50;93.60
25716;DHT22;13573;50.936;4.328;2023-05-16T16:02:25;20.50;93.40
25716;DHT22;13573;50.936;4.328;2023-05-16T16:04:51;20.00;93.50